sensor_id;sensor_type;location;lat;lon;timestamp;P1;durP1;ratioP1;P2;durP2;ratioP2
11709;SDS011;5911;51.036;6.972;2023-02-03T00:00:15;10.13;;;6.40;;
11709;SDS011;5911;51.036;6.972;2023-02-03T00:02:47;13.77;;;8.23;;
11709;SDS011;5911;51.036;6.972;2023-02-03T00:05:14;11.03;;;6.67;;
11709;SDS011;5911;51.036;6.972;2023-02-03T00:07:43;10.43;;;7.17;;
11709;SDS011;5911;51.036;6.972;2023-02-03T00:10:12;13.63;;;7.23;;
11709;SDS011;5911;51.036;6.972;2023-02-03T00:12:40;11.20;;;6.30;;
11709;SDS011;5911;51.036;6.972;2023-02-03T00:15:08;9.43;;;7.03;;
11709;SDS011;5911;51.036;6.972;2023-02-03T00:17:36;10.47;;;6.43;;
11709;SDS011;5911;51.036;6.972;2023-02-03T00:20:04;12.33;;;6.73;;
11709;SDS011;5911;51.036;6.972;2023-02-03T00:22:32;14.43;;;6.77;;
11709;SDS011;5911;51.036;6.972;2023-02-03T00:25:00;10.47;;;6.50;;
11709;SDS011;5911;51.036;6.972;2023-02-03T00:27:30;12.20;;;7.07;;
11709;SDS011;5911;51.036;6.972;2023-02-03T00:29:58;11.73;;;6.37;;
11709;SDS011;5911;51.036;6.972;2023-02-03T00:32:26;12.10;;;6.43;;
11709;SDS011;5911;51.036;6.972;2023-02-03T00:34:54;9.87;;;6.10;;
11709;SDS011;5911;51.036;6.972;2023-02-03T00:37:22;9.17;;;5.83;;
11709;SDS011;5911;51.036;6.972;2023-02-03T00:39:50;9.13;;;5.90;;
11709;SDS011;5911;51.036;6.972;2023-02-03T00:42:18;10.80;;;6.07;;
11709;SDS011;5911;51.036;6.972;2023-02-03T00:44:48;10.37;;;5.83;;
11709;SDS011;5911;51.036;6.972;2023-02-03T00:47:15;12.90;;;5.53;;
11709;SDS011;5911;51.036;6.972;2023-02-03T00:49:43;15.07;;;6.80;;
11709;SDS011;5911;51.036;6.972;2023-02-03T00:52:11;14.30;;;5.37;;
11709;SDS011;5911;51.036;6.972;2023-02-03T00:54:41;7.63;;;4.97;;
11709;SDS011;5911;51.036;6.972;2023-02-03T00:57:09;9.57;;;4.90;;
11709;SDS011;5911;51.036;6.972;2023-02-03T00:59:37;8.53;;;5.53;;
11709;SDS011;5911;51.036;6.972;2023-02-03T01:02:06;11.00;;;6.17;;
11709;SDS011;5911;51.036;6.972;2023-02-03T01:04:35;6.27;;;4.63;;
11709;SDS011;5911;51.036;6.972;2023-02-03T01:07:03;10.00;;;5.27;;
11709;SDS011;5911;51.036;6.972;2023-02-03T01:09:32;8.60;;;5.20;;
11709;SDS011;5911;51.036;6.972;2023-02-03T01:12:00;7.80;;;4.77;;
11709;SDS011;5911;51.036;6.972;2023-02-03T01:14:28;7.97;;;4.60;;
11709;SDS011;5911;51.036;6.972;2023-02-03T01:16:56;8.53;;;5.07;;
11709;SDS011;5911;51.036;6.972;2023-02-03T01:19:25;8.47;;;5.00;;
11709;SDS011;5911;51.036;6.972;2023-02-03T01:21:53;8.87;;;4.53;;
11709;SDS011;5911;51.036;6.972;2023-02-03T01:24:21;11.70;;;5.17;;
11709;SDS011;5911;51.036;6.972;2023-02-03T01:26:49;9.77;;;4.40;;
11709;SDS011;5911;51.036;6.972;2023-02-03T01:29:17;13.47;;;4.80;;
11709;SDS011;5911;51.036;6.972;2023-02-03T01:31:47;10.43;;;5.53;;
11709;SDS011;5911;51.036;6.972;2023-02-03T01:34:15;9.83;;;4.90;;
11709;SDS011;5911;51.036;6.972;2023-02-03T01:36:47;10.33;;;4.40;;
11709;SDS011;5911;51.036;6.972;2023-02-03T01:39:15;10.33;;;4.23;;
11709;SDS011;5911;51.036;6.972;2023-02-03T01:41:44;8.57;;;4.27;;
11709;SDS011;5911;51.036;6.972;2023-02-03T01:47:05;7.80;;;3.87;;
11709;SDS011;5911;51.036;6.972;2023-02-03T01:49:41;7.60;;;4.43;;
11709;SDS011;5911;51.036;6.972;2023-02-03T01:52:15;7.30;;;4.17;;
11709;SDS011;5911;51.036;6.972;2023-02-03T01:54:43;9.47;;;4.20;;
11709;SDS011;5911;51.036;6.972;2023-02-03T01:57:19;8.07;;;4.17;;
11709;SDS011;5911;51.036;6.972;2023-02-03T02:00:02;8.90;;;4.60;;
11709;SDS011;5911;51.036;6.972;2023-02-03T02:02:38;9.90;;;4.10;;
11709;SDS011;5911;51.036;6.972;2023-02-03T02:05:11;13.33;;;5.00;;
11709;SDS011;5911;51.036;6.972;2023-02-03T02:07:45;7.40;;;4.43;;
11709;SDS011;5911;51.036;6.972;2023-02-03T02:10:14;9.17;;;4.13;;
11709;SDS011;5911;51.036;6.972;2023-02-03T02:12:42;7.97;;;3.97;;
11709;SDS011;5911;51.036;6.972;2023-02-03T02:15:11;9.03;;;4.27;;
11709;SDS011;5911;51.036;6.972;2023-02-03T02:17:47;9.60;;;4.10;;
11709;SDS011;5911;51.036;6.972;2023-02-03T02:20:37;11.33;;;3.93;;
11709;SDS011;5911;51.036;6.972;2023-02-03T02:23:35;17.70;;;4.83;;
11709;SDS011;5911;51.036;6.972;2023-02-03T02:26:24;11.63;;;4.37;;
11709;SDS011;5911;51.036;6.972;2023-02-03T02:29:24;6.23;;;4.17;;
11709;SDS011;5911;51.036;6.972;2023-02-03T02:32:15;8.43;;;3.77;;
11709;SDS011;5911;51.036;6.972;2023-02-03T02:34:50;8.60;;;3.63;;
11709;SDS011;5911;51.036;6.972;2023-02-03T02:37:31;8.17;;;3.53;;
11709;SDS011;5911;51.036;6.972;2023-02-03T02:40:07;7.77;;;3.77;;
11709;SDS011;5911;51.036;6.972;2023-02-03T02:42:45;8.40;;;3.47;;
11709;SDS011;5911;51.036;6.972;2023-02-03T02:45:26;8.83;;;3.60;;
11709;SDS011;5911;51.036;6.972;2023-02-03T02:48:01;6.07;;;3.17;;
11709;SDS011;5911;51.036;6.972;2023-02-03T02:50:36;8.17;;;4.00;;
11709;SDS011;5911;51.036;6.972;2023-02-03T02:53:08;7.83;;;3.87;;
11709;SDS011;5911;51.036;6.972;2023-02-03T02:55:39;8.27;;;3.47;;
11709;SDS011;5911;51.036;6.972;2023-02-03T02:58:10;7.53;;;4.30;;
11709;SDS011;5911;51.036;6.972;2023-02-03T03:00:42;10.53;;;4.87;;
11709;SDS011;5911;51.036;6.972;2023-02-03T03:03:13;8.10;;;4.90;;
11709;SDS011;5911;51.036;6.972;2023-02-03T03:05:44;9.13;;;4.93;;
11709;SDS011;5911;51.036;6.972;2023-02-03T03:08:18;11.07;;;4.60;;
11709;SDS011;5911;51.036;6.972;2023-02-03T03:10:50;9.40;;;5.03;;
11709;SDS011;5911;51.036;6.972;2023-02-03T03:13:21;7.30;;;3.87;;
11709;SDS011;5911;51.036;6.972;2023-02-03T03:15:52;12.67;;;4.20;;
11709;SDS011;5911;51.036;6.972;2023-02-03T03:18:25;8.43;;;3.90;;
11709;SDS011;5911;51.036;6.972;2023-02-03T03:20:58;8.13;;;5.13;;
11709;SDS011;5911;51.036;6.972;2023-02-03T03:23:31;8.33;;;4.00;;
11709;SDS011;5911;51.036;6.972;2023-02-03T03:26:07;7.37;;;4.17;;
11709;SDS011;5911;51.036;6.972;2023-02-03T03:28:40;11.17;;;4.07;;
11709;SDS011;5911;51.036;6.972;2023-02-03T03:31:13;6.23;;;3.73;;
11709;SDS011;5911;51.036;6.972;2023-02-03T03:33:43;8.23;;;4.23;;
11709;SDS011;5911;51.036;6.972;2023-02-03T03:36:16;9.27;;;4.10;;
11709;SDS011;5911;51.036;6.972;2023-02-03T03:38:49;5.90;;;4.00;;
11709;SDS011;5911;51.036;6.972;2023-02-03T03:41:25;8.33;;;4.67;;
11709;SDS011;5911;51.036;6.972;2023-02-03T03:44:03;8.97;;;3.97;;
11709;SDS011;5911;51.036;6.972;2023-02-03T03:46:36;10.33;;;4.10;;
11709;SDS011;5911;51.036;6.972;2023-02-03T03:49:11;11.70;;;4.90;;
11709;SDS011;5911;51.036;6.972;2023-02-03T03:51:41;8.20;;;4.20;;
11709;SDS011;5911;51.036;6.972;2023-02-03T03:54:13;7.47;;;4.20;;
11709;SDS011;5911;51.036;6.972;2023-02-03T03:56:45;5.97;;;4.60;;
11709;SDS011;5911;51.036;6.972;2023-02-03T03:59:20;7.33;;;4.03;;
11709;SDS011;5911;51.036;6.972;2023-02-03T04:01:50;9.17;;;4.40;;
11709;SDS011;5911;51.036;6.972;2023-02-03T04:04:20;6.83;;;4.20;;
11709;SDS011;5911;51.036;6.972;2023-02-03T04:06:51;10.10;;;4.27;;
11709;SDS011;5911;51.036;6.972;2023-02-03T04:09:20;7.90;;;4.23;;
11709;SDS011;5911;51.036;6.972;2023-02-03T04:11:48;8.63;;;4.33;;
11709;SDS011;5911;51.036;6.972;2023-02-03T04:14:28;8.80;;;3.47;;
11709;SDS011;5911;51.036;6.972;2023-02-03T04:16:57;10.27;;;4.13;;
11709;SDS011;5911;51.036;6.972;2023-02-03T04:19:26;10.30;;;3.80;;
11709;SDS011;5911;51.036;6.972;2023-02-03T04:21:54;9.70;;;3.80;;
11709;SDS011;5911;51.036;6.972;2023-02-03T04:24:22;8.40;;;3.63;;
11709;SDS011;5911;51.036;6.972;2023-02-03T04:26:50;8.73;;;3.93;;
11709;SDS011;5911;51.036;6.972;2023-02-03T04:29:18;9.00;;;3.83;;
11709;SDS011;5911;51.036;6.972;2023-02-03T04:31:46;7.43;;;3.60;;
11709;SDS011;5911;51.036;6.972;2023-02-03T04:34:14;8.43;;;3.20;;
11709;SDS011;5911;51.036;6.972;2023-02-03T04:36:43;8.63;;;3.40;;
11709;SDS011;5911;51.036;6.972;2023-02-03T04:39:10;4.90;;;3.67;;
11709;SDS011;5911;51.036;6.972;2023-02-03T04:41:38;6.43;;;3.47;;
11709;SDS011;5911;51.036;6.972;2023-02-03T04:44:06;9.03;;;4.17;;
11709;SDS011;5911;51.036;6.972;2023-02-03T04:46:34;9.37;;;3.07;;
11709;SDS011;5911;51.036;6.972;2023-02-03T04:49:02;8.70;;;3.47;;
11709;SDS011;5911;51.036;6.972;2023-02-03T04:51:30;6.70;;;3.23;;
11709;SDS011;5911;51.036;6.972;2023-02-03T04:53:59;9.67;;;3.57;;
11709;SDS011;5911;51.036;6.972;2023-02-03T04:56:27;5.90;;;3.27;;
11709;SDS011;5911;51.036;6.972;2023-02-03T04:58:54;6.10;;;3.30;;
11709;SDS011;5911;51.036;6.972;2023-02-03T05:01:22;6.40;;;2.90;;
11709;SDS011;5911;51.036;6.972;2023-02-03T05:03:50;7.13;;;3.10;;
11709;SDS011;5911;51.036;6.972;2023-02-03T05:06:21;6.63;;;2.87;;
11709;SDS011;5911;51.036;6.972;2023-02-03T05:08:49;7.17;;;3.40;;
11709;SDS011;5911;51.036;6.972;2023-02-03T05:11:19;5.43;;;2.97;;
11709;SDS011;5911;51.036;6.972;2023-02-03T05:13:47;7.73;;;3.07;;
11709;SDS011;5911;51.036;6.972;2023-02-03T05:16:18;6.67;;;3.77;;
11709;SDS011;5911;51.036;6.972;2023-02-03T05:18:46;10.17;;;3.30;;
11709;SDS011;5911;51.036;6.972;2023-02-03T05:21:14;7.27;;;3.00;;
11709;SDS011;5911;51.036;6.972;2023-02-03T05:23:42;6.07;;;3.23;;
11709;SDS011;5911;51.036;6.972;2023-02-03T05:26:09;7.30;;;3.00;;
11709;SDS011;5911;51.036;6.972;2023-02-03T05:28:39;8.33;;;3.73;;
11709;SDS011;5911;51.036;6.972;2023-02-03T05:31:07;7.83;;;3.23;;
11709;SDS011;5911;51.036;6.972;2023-02-03T05:33:35;6.40;;;3.30;;
11709;SDS011;5911;51.036;6.972;2023-02-03T05:36:03;7.70;;;3.30;;
11709;SDS011;5911;51.036;6.972;2023-02-03T05:38:31;6.37;;;3.10;;
11709;SDS011;5911;51.036;6.972;2023-02-03T05:40:58;5.87;;;2.90;;
11709;SDS011;5911;51.036;6.972;2023-02-03T05:43:45;5.90;;;3.00;;
11709;SDS011;5911;51.036;6.972;2023-02-03T05:46:13;6.13;;;3.40;;
11709;SDS011;5911;51.036;6.972;2023-02-03T05:48:41;10.20;;;3.60;;
11709;SDS011;5911;51.036;6.972;2023-02-03T05:51:08;5.37;;;3.07;;
11709;SDS011;5911;51.036;6.972;2023-02-03T05:53:36;9.37;;;2.70;;
11709;SDS011;5911;51.036;6.972;2023-02-03T05:56:04;9.87;;;3.37;;
11709;SDS011;5911;51.036;6.972;2023-02-03T05:58:32;6.87;;;3.20;;
11709;SDS011;5911;51.036;6.972;2023-02-03T06:01:01;8.07;;;3.43;;
11709;SDS011;5911;51.036;6.972;2023-02-03T06:03:29;9.90;;;3.00;;
11709;SDS011;5911;51.036;6.972;2023-02-03T06:05:57;9.53;;;3.43;;
11709;SDS011;5911;51.036;6.972;2023-02-03T06:08:25;4.50;;;2.60;;
11709;SDS011;5911;51.036;6.972;2023-02-03T06:10:56;11.57;;;3.27;;
11709;SDS011;5911;51.036;6.972;2023-02-03T06:13:25;6.63;;;2.40;;
11709;SDS011;5911;51.036;6.972;2023-02-03T06:15:53;5.13;;;1.80;;
11709;SDS011;5911;51.036;6.972;2023-02-03T06:18:22;5.00;;;2.03;;
11709;SDS011;5911;51.036;6.972;2023-02-03T06:20:50;7.97;;;2.37;;
11709;SDS011;5911;51.036;6.972;2023-02-03T06:23:18;6.67;;;2.20;;
11709;SDS011;5911;51.036;6.972;2023-02-03T06:25:46;5.40;;;2.10;;
11709;SDS011;5911;51.036;6.972;2023-02-03T06:28:15;8.97;;;1.90;;
11709;SDS011;5911;51.036;6.972;2023-02-03T06:30:43;5.63;;;2.00;;
11709;SDS011;5911;51.036;6.972;2023-02-03T06:33:11;8.27;;;2.10;;
11709;SDS011;5911;51.036;6.972;2023-02-03T06:35:40;8.40;;;2.47;;
11709;SDS011;5911;51.036;6.972;2023-02-03T06:38:07;3.67;;;1.87;;
11709;SDS011;5911;51.036;6.972;2023-02-03T06:40:35;4.43;;;1.87;;
11709;SDS011;5911;51.036;6.972;2023-02-03T06:43:03;12.30;;;2.23;;
11709;SDS011;5911;51.036;6.972;2023-02-03T06:45:31;4.73;;;1.70;;
11709;SDS011;5911;51.036;6.972;2023-02-03T06:47:59;3.50;;;1.63;;
11709;SDS011;5911;51.036;6.972;2023-02-03T06:50:27;6.07;;;1.90;;
11709;SDS011;5911;51.036;6.972;2023-02-03T06:52:57;9.83;;;2.20;;
11709;SDS011;5911;51.036;6.972;2023-02-03T06:55:25;8.17;;;2.40;;
11709;SDS011;5911;51.036;6.972;2023-02-03T06:57:53;5.70;;;1.73;;
11709;SDS011;5911;51.036;6.972;2023-02-03T07:00:20;5.77;;;1.90;;
11709;SDS011;5911;51.036;6.972;2023-02-03T07:02:52;4.37;;;1.73;;
11709;SDS011;5911;51.036;6.972;2023-02-03T07:05:20;3.13;;;1.73;;
11709;SDS011;5911;51.036;6.972;2023-02-03T07:07:49;5.40;;;1.93;;
11709;SDS011;5911;51.036;6.972;2023-02-03T07:10:18;6.87;;;1.60;;
11709;SDS011;5911;51.036;6.972;2023-02-03T07:12:46;5.67;;;1.83;;
11709;SDS011;5911;51.036;6.972;2023-02-03T07:15:16;8.07;;;1.63;;
11709;SDS011;5911;51.036;6.972;2023-02-03T07:17:44;4.07;;;1.80;;
11709;SDS011;5911;51.036;6.972;2023-02-03T07:20:20;6.17;;;1.67;;
11709;SDS011;5911;51.036;6.972;2023-02-03T07:22:52;6.93;;;2.20;;
11709;SDS011;5911;51.036;6.972;2023-02-03T07:25:22;3.73;;;1.60;;
11709;SDS011;5911;51.036;6.972;2023-02-03T07:27:51;8.20;;;2.17;;
11709;SDS011;5911;51.036;6.972;2023-02-03T07:30:19;3.83;;;1.77;;
11709;SDS011;5911;51.036;6.972;2023-02-03T07:32:47;8.87;;;2.03;;
11709;SDS011;5911;51.036;6.972;2023-02-03T07:35:16;4.50;;;1.70;;
11709;SDS011;5911;51.036;6.972;2023-02-03T07:37:44;5.77;;;1.70;;
11709;SDS011;5911;51.036;6.972;2023-02-03T07:40:12;7.10;;;2.10;;
11709;SDS011;5911;51.036;6.972;2023-02-03T07:42:42;3.07;;;1.80;;
11709;SDS011;5911;51.036;6.972;2023-02-03T07:45:10;6.23;;;1.97;;
11709;SDS011;5911;51.036;6.972;2023-02-03T07:47:39;5.33;;;1.80;;
11709;SDS011;5911;51.036;6.972;2023-02-03T07:50:07;3.37;;;2.07;;
11709;SDS011;5911;51.036;6.972;2023-02-03T07:52:35;4.90;;;2.10;;
11709;SDS011;5911;51.036;6.972;2023-02-03T07:55:03;6.13;;;2.10;;
11709;SDS011;5911;51.036;6.972;2023-02-03T07:57:31;5.33;;;2.10;;
11709;SDS011;5911;51.036;6.972;2023-02-03T08:00:01;3.27;;;1.43;;
11709;SDS011;5911;51.036;6.972;2023-02-03T08:02:37;4.13;;;1.67;;
11709;SDS011;5911;51.036;6.972;2023-02-03T08:05:05;7.23;;;1.83;;
11709;SDS011;5911;51.036;6.972;2023-02-03T08:07:33;6.90;;;1.97;;
11709;SDS011;5911;51.036;6.972;2023-02-03T08:10:01;3.47;;;2.10;;
11709;SDS011;5911;51.036;6.972;2023-02-03T08:12:29;6.17;;;1.87;;
11709;SDS011;5911;51.036;6.972;2023-02-03T08:14:57;5.93;;;1.57;;
11709;SDS011;5911;51.036;6.972;2023-02-03T08:17:26;3.03;;;1.67;;
11709;SDS011;5911;51.036;6.972;2023-02-03T08:19:54;6.33;;;1.77;;
11709;SDS011;5911;51.036;6.972;2023-02-03T08:22:22;6.40;;;1.70;;
11709;SDS011;5911;51.036;6.972;2023-02-03T08:24:50;4.23;;;1.53;;
11709;SDS011;5911;51.036;6.972;2023-02-03T08:27:19;4.73;;;1.70;;
11709;SDS011;5911;51.036;6.972;2023-02-03T08:29:48;3.43;;;1.57;;
11709;SDS011;5911;51.036;6.972;2023-02-03T08:32:17;5.97;;;2.13;;
11709;SDS011;5911;51.036;6.972;2023-02-03T08:34:48;7.13;;;2.07;;
11709;SDS011;5911;51.036;6.972;2023-02-03T08:37:17;4.63;;;1.70;;
11709;SDS011;5911;51.036;6.972;2023-02-03T08:39:46;7.23;;;2.00;;
11709;SDS011;5911;51.036;6.972;2023-02-03T08:42:14;4.60;;;2.03;;
11709;SDS011;5911;51.036;6.972;2023-02-03T08:44:42;4.97;;;1.87;;
11709;SDS011;5911;51.036;6.972;2023-02-03T08:47:10;7.47;;;2.00;;
11709;SDS011;5911;51.036;6.972;2023-02-03T08:49:39;5.20;;;1.43;;
11709;SDS011;5911;51.036;6.972;2023-02-03T08:52:09;8.47;;;2.20;;
11709;SDS011;5911;51.036;6.972;2023-02-03T08:54:38;5.73;;;1.77;;
11709;SDS011;5911;51.036;6.972;2023-02-03T08:57:06;4.00;;;1.90;;
11709;SDS011;5911;51.036;6.972;2023-02-03T08:59:36;4.17;;;2.00;;
11709;SDS011;5911;51.036;6.972;2023-02-03T09:02:06;6.53;;;1.73;;
11709;SDS011;5911;51.036;6.972;2023-02-03T09:04:35;6.10;;;1.57;;
11709;SDS011;5911;51.036;6.972;2023-02-03T09:07:03;7.33;;;2.30;;
11709;SDS011;5911;51.036;6.972;2023-02-03T09:09:32;5.87;;;2.17;;
11709;SDS011;5911;51.036;6.972;2023-02-03T09:12:00;5.77;;;2.90;;
11709;SDS011;5911;51.036;6.972;2023-02-03T09:14:30;6.03;;;2.00;;
11709;SDS011;5911;51.036;6.972;2023-02-03T09:16:59;5.13;;;1.93;;
11709;SDS011;5911;51.036;6.972;2023-02-03T09:19:28;4.57;;;1.90;;
11709;SDS011;5911;51.036;6.972;2023-02-03T09:21:56;5.73;;;1.93;;
11709;SDS011;5911;51.036;6.972;2023-02-03T09:24:24;8.43;;;2.40;;
11709;SDS011;5911;51.036;6.972;2023-02-03T09:26:53;5.33;;;2.03;;
11709;SDS011;5911;51.036;6.972;2023-02-03T09:29:21;5.70;;;1.80;;
11709;SDS011;5911;51.036;6.972;2023-02-03T09:31:49;5.37;;;1.83;;
11709;SDS011;5911;51.036;6.972;2023-02-03T09:34:18;6.00;;;2.03;;
11709;SDS011;5911;51.036;6.972;2023-02-03T09:36:46;5.50;;;2.00;;
11709;SDS011;5911;51.036;6.972;2023-02-03T09:39:14;6.30;;;2.40;;
11709;SDS011;5911;51.036;6.972;2023-02-03T09:44:43;5.37;;;2.30;;
11709;SDS011;5911;51.036;6.972;2023-02-03T09:47:17;7.43;;;2.37;;
11709;SDS011;5911;51.036;6.972;2023-02-03T09:49:50;4.97;;;2.40;;
11709;SDS011;5911;51.036;6.972;2023-02-03T09:52:20;5.77;;;2.93;;
11709;SDS011;5911;51.036;6.972;2023-02-03T09:54:52;5.60;;;2.40;;
11709;SDS011;5911;51.036;6.972;2023-02-03T09:57:27;4.90;;;2.27;;
11709;SDS011;5911;51.036;6.972;2023-02-03T09:59:58;5.70;;;2.27;;
11709;SDS011;5911;51.036;6.972;2023-02-03T10:02:36;5.23;;;2.80;;
11709;SDS011;5911;51.036;6.972;2023-02-03T10:05:17;7.00;;;2.70;;
11709;SDS011;5911;51.036;6.972;2023-02-03T10:07:55;7.10;;;3.30;;
11709;SDS011;5911;51.036;6.972;2023-02-03T10:10:35;7.50;;;2.93;;
11709;SDS011;5911;51.036;6.972;2023-02-03T10:13:20;7.27;;;3.33;;
11709;SDS011;5911;51.036;6.972;2023-02-03T10:16:07;5.50;;;3.10;;
11709;SDS011;5911;51.036;6.972;2023-02-03T10:18:49;4.23;;;2.70;;
11709;SDS011;5911;51.036;6.972;2023-02-03T10:21:30;7.07;;;3.30;;
11709;SDS011;5911;51.036;6.972;2023-02-03T10:24:02;4.83;;;3.53;;
11709;SDS011;5911;51.036;6.972;2023-02-03T10:26:32;10.87;;;4.00;;
11709;SDS011;5911;51.036;6.972;2023-02-03T10:29:03;7.63;;;3.77;;
11709;SDS011;5911;51.036;6.972;2023-02-03T10:31:39;6.30;;;3.50;;
11709;SDS011;5911;51.036;6.972;2023-02-03T10:34:10;7.00;;;3.47;;
11709;SDS011;5911;51.036;6.972;2023-02-03T10:36:46;8.27;;;3.33;;
11709;SDS011;5911;51.036;6.972;2023-02-03T10:39:22;6.73;;;3.93;;
11709;SDS011;5911;51.036;6.972;2023-02-03T10:41:55;7.87;;;3.80;;
11709;SDS011;5911;51.036;6.972;2023-02-03T10:44:27;5.73;;;3.20;;
11709;SDS011;5911;51.036;6.972;2023-02-03T10:46:59;8.13;;;3.90;;
11709;SDS011;5911;51.036;6.972;2023-02-03T10:49:27;6.93;;;4.07;;
11709;SDS011;5911;51.036;6.972;2023-02-03T10:51:56;8.13;;;3.40;;
11709;SDS011;5911;51.036;6.972;2023-02-03T10:54:30;6.53;;;3.57;;
11709;SDS011;5911;51.036;6.972;2023-02-03T10:57:03;7.27;;;3.40;;
11709;SDS011;5911;51.036;6.972;2023-02-03T10:59:35;6.10;;;3.87;;
11709;SDS011;5911;51.036;6.972;2023-02-03T11:02:09;4.23;;;3.50;;
11709;SDS011;5911;51.036;6.972;2023-02-03T11:04:47;7.83;;;3.80;;
11709;SDS011;5911;51.036;6.972;2023-02-03T11:07:35;5.40;;;4.23;;
11709;SDS011;5911;51.036;6.972;2023-02-03T11:10:03;8.87;;;4.37;;
11709;SDS011;5911;51.036;6.972;2023-02-03T11:13:11;8.40;;;4.67;;
11709;SDS011;5911;51.036;6.972;2023-02-03T11:15:54;7.30;;;4.57;;
11709;SDS011;5911;51.036;6.972;2023-02-03T11:18:36;7.83;;;4.77;;
11709;SDS011;5911;51.036;6.972;2023-02-03T11:21:07;5.37;;;4.73;;
11709;SDS011;5911;51.036;6.972;2023-02-03T11:23:37;7.27;;;5.23;;
11709;SDS011;5911;51.036;6.972;2023-02-03T11:26:17;8.60;;;5.07;;
11709;SDS011;5911;51.036;6.972;2023-02-03T11:28:48;6.00;;;5.13;;
11709;SDS011;5911;51.036;6.972;2023-02-03T11:31:20;8.63;;;5.30;;
11709;SDS011;5911;51.036;6.972;2023-02-03T11:33:55;10.17;;;6.20;;
11709;SDS011;5911;51.036;6.972;2023-02-03T11:36:26;7.27;;;6.50;;
11709;SDS011;5911;51.036;6.972;2023-02-03T11:39:09;8.73;;;6.00;;
11709;SDS011;5911;51.036;6.972;2023-02-03T11:41:43;9.93;;;6.53;;
11709;SDS011;5911;51.036;6.972;2023-02-03T11:44:15;7.67;;;6.87;;
11709;SDS011;5911;51.036;6.972;2023-02-03T11:46:47;7.37;;;6.43;;
11709;SDS011;5911;51.036;6.972;2023-02-03T11:49:31;10.87;;;7.37;;
11709;SDS011;5911;51.036;6.972;2023-02-03T11:52:26;9.73;;;7.67;;
11709;SDS011;5911;51.036;6.972;2023-02-03T11:55:13;11.60;;;8.17;;
11709;SDS011;5911;51.036;6.972;2023-02-03T11:57:51;10.57;;;8.20;;
11709;SDS011;5911;51.036;6.972;2023-02-03T12:00:29;10.90;;;7.50;;
11709;SDS011;5911;51.036;6.972;2023-02-03T12:03:13;8.90;;;8.00;;
11709;SDS011;5911;51.036;6.972;2023-02-03T12:05:59;8.90;;;7.87;;
11709;SDS011;5911;51.036;6.972;2023-02-03T12:08:50;10.80;;;8.27;;
11709;SDS011;5911;51.036;6.972;2023-02-03T12:11:44;10.90;;;8.17;;
11709;SDS011;5911;51.036;6.972;2023-02-03T12:14:29;11.33;;;8.67;;
11709;SDS011;5911;51.036;6.972;2023-02-03T12:20:24;14.77;;;8.80;;
11709;SDS011;5911;51.036;6.972;2023-02-03T12:23:06;12.63;;;9.10;;
11709;SDS011;5911;51.036;6.972;2023-02-03T12:25:45;12.77;;;9.27;;
11709;SDS011;5911;51.036;6.972;2023-02-03T12:28:28;10.03;;;8.70;;
11709;SDS011;5911;51.036;6.972;2023-02-03T12:31:09;12.40;;;8.77;;
11709;SDS011;5911;51.036;6.972;2023-02-03T12:33:42;12.20;;;9.30;;
11709;SDS011;5911;51.036;6.972;2023-02-03T12:36:21;10.77;;;9.60;;
11709;SDS011;5911;51.036;6.972;2023-02-03T12:38:56;11.10;;;9.00;;
11709;SDS011;5911;51.036;6.972;2023-02-03T12:41:29;13.37;;;9.30;;
11709;SDS011;5911;51.036;6.972;2023-02-03T12:44:03;9.87;;;8.77;;
11709;SDS011;5911;51.036;6.972;2023-02-03T12:46:35;11.83;;;9.97;;
11709;SDS011;5911;51.036;6.972;2023-02-03T12:49:12;11.73;;;9.00;;
11709;SDS011;5911;51.036;6.972;2023-02-03T12:51:54;14.33;;;9.63;;
11709;SDS011;5911;51.036;6.972;2023-02-03T12:54:30;11.97;;;9.43;;
11709;SDS011;5911;51.036;6.972;2023-02-03T12:57:11;10.17;;;9.03;;
11709;SDS011;5911;51.036;6.972;2023-02-03T12:59:46;12.37;;;9.70;;
11709;SDS011;5911;51.036;6.972;2023-02-03T13:02:23;12.80;;;9.60;;
11709;SDS011;5911;51.036;6.972;2023-02-03T13:04:56;14.10;;;9.90;;
11709;SDS011;5911;51.036;6.972;2023-02-03T13:07:32;10.27;;;9.23;;
11709;SDS011;5911;51.036;6.972;2023-02-03T13:10:11;13.83;;;9.70;;
11709;SDS011;5911;51.036;6.972;2023-02-03T13:12:46;10.97;;;8.53;;
11709;SDS011;5911;51.036;6.972;2023-02-03T13:15:21;13.83;;;8.97;;
11709;SDS011;5911;51.036;6.972;2023-02-03T13:17:53;13.13;;;9.60;;
11709;SDS011;5911;51.036;6.972;2023-02-03T13:20:25;15.03;;;9.53;;
11709;SDS011;5911;51.036;6.972;2023-02-03T13:23:03;11.93;;;9.63;;
11709;SDS011;5911;51.036;6.972;2023-02-03T13:25:41;10.57;;;8.60;;
11709;SDS011;5911;51.036;6.972;2023-02-03T13:28:19;12.03;;;8.37;;
11709;SDS011;5911;51.036;6.972;2023-02-03T13:31:11;13.27;;;8.17;;
11709;SDS011;5911;51.036;6.972;2023-02-03T13:37:15;11.17;;;8.07;;
11709;SDS011;5911;51.036;6.972;2023-02-03T13:40:05;10.70;;;7.43;;
11709;SDS011;5911;51.036;6.972;2023-02-03T13:42:43;10.03;;;7.33;;
11709;SDS011;5911;51.036;6.972;2023-02-03T13:45:21;8.13;;;7.33;;
11709;SDS011;5911;51.036;6.972;2023-02-03T13:47:54;11.33;;;6.63;;
11709;SDS011;5911;51.036;6.972;2023-02-03T13:50:25;8.77;;;6.73;;
11709;SDS011;5911;51.036;6.972;2023-02-03T13:52:56;12.67;;;6.63;;
11709;SDS011;5911;51.036;6.972;2023-02-03T13:55:29;9.43;;;6.43;;
11709;SDS011;5911;51.036;6.972;2023-02-03T13:58:01;7.20;;;5.70;;
11709;SDS011;5911;51.036;6.972;2023-02-03T14:03:40;8.77;;;5.27;;
11709;SDS011;5911;51.036;6.972;2023-02-03T14:09:36;9.53;;;5.07;;
11709;SDS011;5911;51.036;6.972;2023-02-03T14:12:20;8.83;;;5.03;;
11709;SDS011;5911;51.036;6.972;2023-02-03T14:17:58;8.93;;;4.83;;
11709;SDS011;5911;51.036;6.972;2023-02-03T14:20:47;8.17;;;4.57;;
11709;SDS011;5911;51.036;6.972;2023-02-03T14:23:36;9.70;;;4.30;;
11709;SDS011;5911;51.036;6.972;2023-02-03T14:26:13;9.57;;;4.47;;
11709;SDS011;5911;51.036;6.972;2023-02-03T14:28:46;8.80;;;4.47;;
11709;SDS011;5911;51.036;6.972;2023-02-03T14:31:19;9.27;;;4.30;;
11709;SDS011;5911;51.036;6.972;2023-02-03T14:34:08;6.90;;;4.03;;
11709;SDS011;5911;51.036;6.972;2023-02-03T14:36:47;12.70;;;4.43;;
11709;SDS011;5911;51.036;6.972;2023-02-03T14:39:29;5.93;;;3.70;;
11709;SDS011;5911;51.036;6.972;2023-02-03T14:42:12;9.17;;;4.33;;
11709;SDS011;5911;51.036;6.972;2023-02-03T14:44:53;8.53;;;3.70;;
11709;SDS011;5911;51.036;6.972;2023-02-03T14:47:37;9.40;;;3.67;;
11709;SDS011;5911;51.036;6.972;2023-02-03T14:50:21;9.60;;;3.30;;
11709;SDS011;5911;51.036;6.972;2023-02-03T14:53:23;9.53;;;3.70;;
11709;SDS011;5911;51.036;6.972;2023-02-03T14:56:05;9.40;;;3.80;;
11709;SDS011;5911;51.036;6.972;2023-02-03T14:58:43;11.00;;;4.27;;
11709;SDS011;5911;51.036;6.972;2023-02-03T15:04:33;10.43;;;3.97;;
11709;SDS011;5911;51.036;6.972;2023-02-03T15:07:01;8.63;;;3.50;;
11709;SDS011;5911;51.036;6.972;2023-02-03T15:09:30;10.93;;;3.60;;
11709;SDS011;5911;51.036;6.972;2023-02-03T15:12:14;5.97;;;3.60;;
11709;SDS011;5911;51.036;6.972;2023-02-03T15:14:43;8.07;;;3.77;;
11709;SDS011;5911;51.036;6.972;2023-02-03T15:17:19;5.83;;;3.60;;
11709;SDS011;5911;51.036;6.972;2023-02-03T15:19:51;9.67;;;3.63;;
11709;SDS011;5911;51.036;6.972;2023-02-03T15:22:20;7.63;;;3.90;;
11709;SDS011;5911;51.036;6.972;2023-02-03T15:24:49;8.50;;;4.00;;
11709;SDS011;5911;51.036;6.972;2023-02-03T15:27:22;6.83;;;3.20;;
11709;SDS011;5911;51.036;6.972;2023-02-03T15:29:55;7.80;;;3.70;;
11709;SDS011;5911;51.036;6.972;2023-02-03T15:32:44;12.20;;;3.70;;
11709;SDS011;5911;51.036;6.972;2023-02-03T15:35:19;6.07;;;3.23;;
11709;SDS011;5911;51.036;6.972;2023-02-03T15:37:49;8.03;;;4.07;;
11709;SDS011;5911;51.036;6.972;2023-02-03T15:40:20;10.33;;;4.33;;
11709;SDS011;5911;51.036;6.972;2023-02-03T15:42:51;11.73;;;4.43;;
11709;SDS011;5911;51.036;6.972;2023-02-03T15:45:25;9.43;;;4.60;;
11709;SDS011;5911;51.036;6.972;2023-02-03T15:47:58;14.67;;;6.73;;
11709;SDS011;5911;51.036;6.972;2023-02-03T15:50:30;6.83;;;4.27;;
11709;SDS011;5911;51.036;6.972;2023-02-03T15:53:03;13.90;;;7.83;;
11709;SDS011;5911;51.036;6.972;2023-02-03T15:55:35;13.70;;;4.90;;